Pottersville, Vermont
Current Conditions -  °F | °C
As of 4:54 AM on Sunday 21 Dec 2014 (Local Time) from KMVL Reporting Station
Overcast Overcast  
Wind Chill: -15°   Ceiling: 600
Heat Index: -15°   Visibility: 10mi
Dew Point: -17°   Wind: 0mph
Humidity: 84%   Direction: NA
Pressure: 30.32"   Gusts: NA
Location:  44.5359°N, 72.4842°W
Report Text: KMVL 210954Z AUTO 00000KT 10SM OVC006 M15/M17 A3032 RMK AO2 SLP285 T11501172 TSNO
Loading
Personal Weather Stations






























Interactive Weather Map New forecast layout! Learn more

10-Day Weather Forecast

Advertisements
Track Severe Weather on mobile